Time;durP1;ratioP1;P1;durP2;ratioP2;P2;SDS_P1;SDS_P2;PMS_P1;PMS_P2;Temp;Humidity;BMP_temperature;BMP_pressure;BME280_temperature;BME280_humidity;BME280_pressure;Samples;Min_cycle;Max_cycle;Signal;HPM_P1;HPM_P2
2021/05/26 00:00:58;;;;;;;23.08;17.25;;;;;;;-143.98;100.00;68091.63;4984819;28;20094;-82
2021/05/26 00:03:28;;;;;;;24.42;18.25;;;;;;;-143.98;100.00;68091.63;4965280;28;20563;-82
2021/05/26 00:06:00;;;;;;;22.88;17.55;;;;;;;-143.98;100.00;68091.63;4965511;28;20055;-83
2021/05/26 00:08:48;;;;;;;22.80;18.15;;;;;;;-143.98;100.00;68091.63;4950821;28;20153;-83
2021/05/26 00:11:17;;;;;;;21.98;17.75;;;;;;;-143.98;100.00;68091.63;4948515;28;20054;-83
2021/05/26 00:13:46;;;;;;;28.15;19.33;;;;;;;-143.98;100.00;68091.63;4964850;28;20142;-83
2021/05/26 00:16:13;;;;;;;28.23;18.27;;;;;;;-143.98;100.00;68091.63;4948619;28;20059;-83
2021/05/26 00:18:41;;;;;;;23.17;19.08;;;;;;;-143.98;100.00;68091.63;4965248;28;20408;-83
2021/05/26 00:21:09;;;;;;;23.35;18.23;;;;;;;-143.98;100.00;68091.63;4949814;28;20082;-83
2021/05/26 00:23:40;;;;;;;34.30;20.40;;;;;;;-143.98;100.00;68091.63;4965340;28;20062;-83
2021/05/26 00:26:07;;;;;;;24.10;19.52;;;;;;;-143.98;100.00;68091.63;4982201;28;20054;-83
2021/05/26 00:28:34;;;;;;;27.95;18.17;;;;;;;-143.98;100.00;68091.63;4966059;28;20067;-83
2021/05/26 00:31:01;;;;;;;23.90;20.40;;;;;;;-143.98;100.00;68091.63;4949338;28;20155;-84
2021/05/26 00:33:29;;;;;;;20.58;18.05;;;;;;;-143.98;100.00;68091.63;4964864;28;20046;-84
2021/05/26 00:35:55;;;;;;;22.48;18.08;;;;;;;-143.98;100.00;68091.63;4950548;28;20055;-84
2021/05/26 00:38:25;;;;;;;25.20;18.15;;;;;;;-143.98;100.00;68091.63;4949779;28;20055;-84
2021/05/26 00:40:52;;;;;;;28.15;17.88;;;;;;;-143.98;100.00;68091.63;4949945;28;20458;-83
2021/05/26 00:43:19;;;;;;;21.17;17.38;;;;;;;-143.98;100.00;68091.63;4943928;28;20051;-83
2021/05/26 00:45:47;;;;;;;24.23;18.67;;;;;;;-143.98;100.00;68091.63;4962361;28;20443;-83
2021/05/26 00:48:19;;;;;;;23.55;17.35;;;;;;;-143.98;100.00;68091.63;4963986;28;20338;-84
2021/05/26 00:50:46;;;;;;;21.85;18.35;;;;;;;-143.98;100.00;68091.63;4963029;28;20058;-83
2021/05/26 00:53:17;;;;;;;29.05;17.13;;;;;;;-143.98;100.00;68091.63;4964002;28;20110;-83
2021/05/26 00:55:45;;;;;;;25.70;18.50;;;;;;;-143.98;100.00;68091.63;4962777;28;20129;-83
2021/05/26 00:58:17;;;;;;;24.17;18.75;;;;;;;-143.98;100.00;68091.63;4964183;28;20042;-84
2021/05/26 01:00:47;;;;;;;24.75;19.60;;;;;;;-143.98;100.00;68091.63;4965284;28;20063;-83
2021/05/26 01:03:14;;;;;;;26.35;20.30;;;;;;;-143.98;100.00;68091.63;4965463;28;20093;-83
2021/05/26 01:05:50;;;;;;;24.95;18.33;;;;;;;-143.98;100.00;68091.63;4966592;28;20057;-83
2021/05/26 01:08:25;;;;;;;22.52;19.08;;;;;;;-143.98;100.00;68091.63;4950479;28;20187;-84
2021/05/26 01:10:52;;;;;;;26.48;19.33;;;;;;;-143.98;100.00;68091.63;4964855;28;20055;-84
2021/05/26 01:13:22;;;;;;;27.17;19.42;;;;;;;-143.98;100.00;68091.63;4951017;28;20050;-84
2021/05/26 01:15:59;;;;;;;29.98;20.83;;;;;;;-143.98;100.00;68091.63;4967024;28;20067;-84
2021/05/26 01:18:32;;;;;;;26.58;19.83;;;;;;;-143.98;100.00;68091.63;4966510;28;20209;-84
2021/05/26 01:21:01;;;;;;;25.30;19.92;;;;;;;-143.98;100.00;68091.63;4967365;28;20057;-84
2021/05/26 01:23:29;;;;;;;25.20;19.70;;;;;;;-143.98;100.00;68091.63;4949575;28;20089;-83
2021/05/26 01:25:58;;;;;;;30.27;20.00;;;;;;;-143.98;100.00;68091.63;4947585;28;20058;-84
2021/05/26 01:28:28;;;;;;;28.25;18.80;;;;;;;-143.98;100.00;68091.63;4951645;28;20415;-84
2021/05/26 01:30:56;;;;;;;30.77;20.13;;;;;;;-143.98;100.00;68091.63;4965956;28;20346;-84
2021/05/26 01:33:26;;;;;;;31.95;19.48;;;;;;;-143.98;100.00;68091.63;4966004;28;20387;-82
2021/05/26 01:35:53;;;;;;;35.03;20.38;;;;;;;-143.98;100.00;68091.63;4967216;28;20063;-82
2021/05/26 01:38:22;;;;;;;28.00;19.75;;;;;;;-143.98;100.00;68091.63;4966277;28;20061;-82
2021/05/26 01:40:54;;;;;;;32.60;21.30;;;;;;;-143.98;100.00;68091.63;4970561;28;20038;-82
2021/05/26 01:43:23;;;;;;;32.38;20.85;;;;;;;-143.98;100.00;68091.63;4979685;28;20047;-85
2021/05/26 01:45:53;;;;;;;30.30;21.73;;;;;;;-143.98;100.00;68091.63;4971399;28;20121;-83
2021/05/26 01:48:20;;;;;;;31.85;21.88;;;;;;;-143.98;100.00;68091.63;4966172;28;20047;-83
2021/05/26 01:50:47;;;;;;;34.92;20.77;;;;;;;-143.98;100.00;68091.63;4949789;28;20051;-83
2021/05/26 01:53:18;;;;;;;33.30;22.38;;;;;;;-143.98;100.00;68091.63;4964844;28;20074;-83
2021/05/26 01:55:45;;;;;;;31.55;22.42;;;;;;;-143.98;100.00;68091.63;4950472;28;20301;-83
2021/05/26 01:58:18;;;;;;;30.92;22.75;;;;;;;-143.98;100.00;68091.63;4965467;28;20086;-83
2021/05/26 02:00:45;;;;;;;35.42;23.00;;;;;;;-143.98;100.00;68091.63;4966513;28;20361;-83
2021/05/26 02:03:23;;;;;;;32.03;24.25;;;;;;;-143.98;100.00;68091.63;4980352;28;20356;-83
2021/05/26 02:05:50;;;;;;;32.88;22.70;;;;;;;-143.98;100.00;68091.63;4980257;28;20054;-83
2021/05/26 02:08:18;;;;;;;42.15;23.98;;;;;;;-143.98;100.00;68091.63;4979353;28;20151;-83
2021/05/26 02:13:35;;;;;;;34.53;24.38;;;;;;;-143.98;100.00;68091.63;4977231;28;20121;-82
2021/05/26 02:16:01;;;;;;;40.20;24.48;;;;;;;-143.98;100.00;68091.63;4977336;28;20085;-81
2021/05/26 02:18:28;;;;;;;32.28;24.88;;;;;;;-143.98;100.00;68091.63;4965139;28;20074;-81
2021/05/26 02:20:55;;;;;;;37.03;24.15;;;;;;;-143.98;100.00;68091.63;4961727;28;20046;-81
2021/05/26 02:23:22;;;;;;;35.55;23.75;;;;;;;-143.98;100.00;68091.63;4977286;28;20432;-82
2021/05/26 02:25:51;;;;;;;30.73;23.60;;;;;;;-143.98;100.00;68091.63;4975867;28;20054;-81
2021/05/26 02:28:18;;;;;;;32.22;23.67;;;;;;;-143.98;100.00;68091.63;4959211;28;20046;-81
2021/05/26 02:30:48;;;;;;;36.03;24.45;;;;;;;-143.98;100.00;68091.63;4958901;28;20087;-83
2021/05/26 02:33:21;;;;;;;46.40;26.65;;;;;;;-143.98;100.00;68091.63;4959607;28;20062;-83
2021/05/26 02:35:51;;;;;;;33.05;23.75;;;;;;;-143.98;100.00;68091.63;4977388;28;20062;-82
2021/05/26 02:38:17;;;;;;;36.75;25.08;;;;;;;-143.98;100.00;68091.63;4976683;28;20446;-82
2021/05/26 02:40:50;;;;;;;41.47;26.23;;;;;;;-143.98;100.00;68091.63;4975251;28;20058;-81
2021/05/26 02:43:24;;;;;;;44.95;28.05;;;;;;;-143.98;100.00;68091.63;4975787;28;20126;-82
2021/05/26 02:45:51;;;;;;;43.55;26.45;;;;;;;-143.98;100.00;68091.63;4976335;28;20055;-82
2021/05/26 02:48:19;;;;;;;44.38;26.60;;;;;;;-143.98;100.00;68091.63;4974473;28;20054;-81
2021/05/26 02:50:46;;;;;;;44.00;28.88;;;;;;;-143.98;100.00;68091.63;4958852;28;20043;-81
2021/05/26 02:53:14;;;;;;;44.63;28.30;;;;;;;-143.98;100.00;68091.63;4959306;28;20345;-81
2021/05/26 02:55:40;;;;;;;43.72;28.05;;;;;;;-143.98;100.00;68091.63;4958570;28;20058;-82
2021/05/26 02:58:07;;;;;;;39.08;27.48;;;;;;;-143.98;100.00;68091.63;4975539;28;20057;-82
2021/05/26 03:00:38;;;;;;;41.30;26.58;;;;;;;-143.98;100.00;68091.63;4974270;28;20058;-82
2021/05/26 03:03:12;;;;;;;38.63;26.35;;;;;;;-143.98;100.00;68091.63;4957579;28;20117;-82
2021/05/26 03:05:41;;;;;;;42.17;27.33;;;;;;;-143.98;100.00;68091.63;4990728;28;20070;-82
2021/05/26 03:08:08;;;;;;;36.40;25.75;;;;;;;-143.98;100.00;68091.63;4958165;28;20062;-82
2021/05/26 03:10:38;;;;;;;39.40;25.00;;;;;;;-143.98;100.00;68091.63;4973699;28;20251;-83
2021/05/26 03:13:17;;;;;;;33.20;25.42;;;;;;;-143.98;100.00;68091.63;4966837;28;20088;-83
2021/05/26 03:15:45;;;;;;;33.65;25.00;;;;;;;-143.98;100.00;68091.63;4969067;28;20051;-83
2021/05/26 03:18:13;;;;;;;31.45;23.85;;;;;;;-143.98;100.00;68091.63;4968993;28;20046;-83
2021/05/26 03:20:53;;;;;;;33.30;24.38;;;;;;;-143.98;100.00;68091.63;4983422;28;20112;-83
2021/05/26 03:23:20;;;;;;;38.35;24.83;;;;;;;-143.98;100.00;68091.63;4965253;28;20054;-83
2021/05/26 03:25:51;;;;;;;32.97;23.25;;;;;;;-143.98;100.00;68091.63;4980707;28;20131;-83
2021/05/26 03:28:19;;;;;;;34.30;23.50;;;;;;;-143.98;100.00;68091.63;4974552;28;20058;-83
2021/05/26 03:30:55;;;;;;;35.67;25.15;;;;;;;-143.98;100.00;68091.63;4943185;29;20348;-83
2021/05/26 03:33:22;;;;;;;35.83;24.08;;;;;;;-143.98;100.00;68091.63;4962465;28;20403;-85
2021/05/26 03:35:49;;;;;;;38.63;25.13;;;;;;;-143.98;100.00;68091.63;4965072;29;20167;-84
2021/05/26 03:38:25;;;;;;;31.27;23.40;;;;;;;-143.98;100.00;68091.63;4980377;28;20051;-83
2021/05/26 03:40:53;;;;;;;34.92;23.63;;;;;;;-143.98;100.00;68091.63;4983656;28;20356;-84
2021/05/26 03:43:23;;;;;;;30.88;22.92;;;;;;;-143.98;100.00;68091.63;4965743;28;20051;-84
2021/05/26 03:45:50;;;;;;;36.67;25.00;;;;;;;-143.98;100.00;68091.63;4983410;28;20437;-84
2021/05/26 03:48:22;;;;;;;31.17;23.55;;;;;;;-143.98;100.00;68091.63;4966466;28;20057;-83
2021/05/26 03:51:01;;;;;;;33.50;22.90;;;;;;;-143.98;100.00;68091.63;4964599;28;20054;-84
2021/05/26 03:53:27;;;;;;;36.75;25.23;;;;;;;-143.98;100.00;68091.63;4980268;28;20144;-84
2021/05/26 03:55:57;;;;;;;34.63;24.70;;;;;;;-143.98;100.00;68091.63;4981557;28;20047;-84
2021/05/26 03:58:26;;;;;;;34.83;25.15;;;;;;;-143.98;100.00;68091.63;4965302;28;20101;-84
2021/05/26 04:00:56;;;;;;;33.85;24.88;;;;;;;-143.98;100.00;68091.63;4961503;28;20158;-83
2021/05/26 04:03:24;;;;;;;31.17;24.50;;;;;;;-143.98;100.00;68091.63;4944093;29;20063;-82
2021/05/26 04:05:55;;;;;;;36.85;25.98;;;;;;;-143.98;100.00;68091.63;4958707;29;20062;-83
2021/05/26 04:08:23;;;;;;;36.40;25.52;;;;;;;-143.98;100.00;68091.63;4977039;28;20106;-83
2021/05/26 04:10:49;;;;;;;34.40;25.80;;;;;;;-143.98;100.00;68091.63;4944474;29;20055;-83
2021/05/26 04:13:24;;;;;;;37.03;26.35;;;;;;;-143.98;100.00;68091.63;4960083;29;20047;-84
2021/05/26 04:15:54;;;;;;;37.88;27.88;;;;;;;-143.98;100.00;68091.63;4975308;28;20051;-83
2021/05/26 04:18:24;;;;;;;40.42;27.05;;;;;;;-143.98;100.00;68091.63;4959628;29;20071;-83
2021/05/26 04:20:56;;;;;;;36.50;25.88;;;;;;;-143.98;100.00;68091.63;4975887;28;20047;-83
2021/05/26 04:23:25;;;;;;;32.55;25.00;;;;;;;-143.98;100.00;68091.63;4947723;29;20062;-84
2021/05/26 04:25:58;;;;;;;31.75;23.85;;;;;;;-143.98;100.00;68091.63;4962849;28;20059;-84
2021/05/26 04:28:25;;;;;;;31.75;25.10;;;;;;;-143.98;100.00;68091.63;4976684;28;20051;-83
2021/05/26 04:30:58;;;;;;;30.80;24.17;;;;;;;-143.98;100.00;68091.63;4959858;29;20395;-84
2021/05/26 04:33:28;;;;;;;34.97;23.90;;;;;;;-143.98;100.00;68091.63;4955351;29;20404;-85
2021/05/26 04:35:56;;;;;;;35.88;24.25;;;;;;;-143.98;100.00;68091.63;4941685;29;20150;-84
2021/05/26 04:38:29;;;;;;;31.92;23.83;;;;;;;-143.98;100.00;68091.63;4929191;29;20358;-84
2021/05/26 04:41:00;;;;;;;29.52;23.17;;;;;;;-143.98;100.00;68091.63;4945923;28;20075;-85
2021/05/26 04:43:31;;;;;;;33.88;24.60;;;;;;;-143.98;100.00;68091.63;4978880;28;20404;-84
2021/05/26 04:46:04;;;;;;;32.50;24.38;;;;;;;-143.98;100.00;68091.63;4964660;28;20055;-84
2021/05/26 04:48:31;;;;;;;29.25;23.75;;;;;;;-143.98;100.00;68091.63;4968210;28;20105;-84
2021/05/26 04:50:59;;;;;;;33.33;23.75;;;;;;;-143.98;100.00;68091.63;4976729;28;20067;-84
2021/05/26 04:53:26;;;;;;;36.03;26.25;;;;;;;-143.98;100.00;68091.63;4968162;28;20321;-84
2021/05/26 04:55:53;;;;;;;28.85;23.00;;;;;;;-143.98;100.00;68091.63;4942780;28;20288;-83
2021/05/26 04:58:26;;;;;;;30.45;23.60;;;;;;;-143.98;100.00;68091.63;4942876;29;20055;-83
2021/05/26 05:00:53;;;;;;;30.23;23.30;;;;;;;-143.98;100.00;68091.63;4964508;28;20058;-83
2021/05/26 05:03:24;;;;;;;32.53;24.13;;;;;;;-143.98;100.00;68091.63;4957863;28;20104;-83
2021/05/26 05:05:56;;;;;;;31.25;24.17;;;;;;;-143.98;100.00;68091.63;4975298;28;20050;-82
2021/05/26 05:08:23;;;;;;;28.10;21.50;;;;;;;-143.98;100.00;68091.63;4966376;28;20101;-83
2021/05/26 05:10:53;;;;;;;31.50;25.23;;;;;;;-143.98;100.00;68091.63;4970703;28;20189;-83
2021/05/26 05:13:24;;;;;;;36.17;24.83;;;;;;;-143.98;100.00;68091.63;4970985;28;20557;-85
2021/05/26 05:15:51;;;;;;;37.42;24.70;;;;;;;-143.98;100.00;68091.63;4954697;28;20132;-85
2021/05/26 05:18:21;;;;;;;30.63;23.48;;;;;;;-143.98;100.00;68091.63;4954269;29;20051;-84
2021/05/26 05:20:50;;;;;;;29.77;22.42;;;;;;;-143.98;100.00;68091.63;4954070;29;20510;-84
2021/05/26 05:23:17;;;;;;;28.20;21.77;;;;;;;-143.98;100.00;68091.63;4987245;28;20062;-84
2021/05/26 05:25:44;;;;;;;30.80;23.70;;;;;;;-143.98;100.00;68091.63;4991867;28;20051;-84
2021/05/26 05:28:12;;;;;;;27.45;21.77;;;;;;;-143.98;100.00;68091.63;4977911;28;20054;-84
2021/05/26 05:30:45;;;;;;;31.98;21.45;;;;;;;-143.98;100.00;68091.63;4974617;28;20074;-83
2021/05/26 05:33:20;;;;;;;30.80;21.65;;;;;;;-143.98;100.00;68091.63;4970776;28;20055;-86
2021/05/26 05:35:54;;;;;;;30.05;21.10;;;;;;;-143.98;100.00;68091.63;4972009;28;20085;-84
2021/05/26 05:38:22;;;;;;;35.63;22.75;;;;;;;-143.98;100.00;68091.63;4970790;28;20117;-84
2021/05/26 05:40:51;;;;;;;33.50;22.42;;;;;;;-143.98;100.00;68091.63;4956254;28;20046;-84
2021/05/26 05:43:18;;;;;;;30.73;21.65;;;;;;;-143.98;100.00;68091.63;4989001;28;20246;-84
2021/05/26 05:45:50;;;;;;;35.63;23.58;;;;;;;-143.98;100.00;68091.63;4972531;28;20077;-85
2021/05/26 05:48:18;;;;;;;34.22;21.23;;;;;;;-143.98;100.00;68091.63;4977193;28;20062;-85
2021/05/26 05:50:46;;;;;;;31.60;22.85;;;;;;;-143.98;100.00;68091.63;4975243;28;20051;-85
2021/05/26 05:53:23;;;;;;;34.10;23.38;;;;;;;-143.98;100.00;68091.63;4966557;28;20227;-85
2021/05/26 05:55:51;;;;;;;28.95;20.50;;;;;;;-143.98;100.00;68091.63;4957446;28;20111;-86
2021/05/26 05:58:25;;;;;;;33.50;21.90;;;;;;;-143.98;100.00;68091.63;4986455;28;20043;-85
2021/05/26 06:01:04;;;;;;;33.13;23.00;;;;;;;-143.98;100.00;68091.63;4985440;28;20230;-86
2021/05/26 06:03:31;;;;;;;34.85;23.35;;;;;;;-143.98;100.00;68091.63;4988986;28;20038;-84
2021/05/26 06:06:03;;;;;;;38.17;22.33;;;;;;;-143.98;100.00;68091.63;5003854;28;20050;-86
2021/05/26 06:08:40;;;;;;;35.75;22.95;;;;;;;-143.98;100.00;68091.63;4986349;28;20088;-85
2021/05/26 06:11:08;;;;;;;31.55;21.20;;;;;;;-143.98;100.00;68091.63;4993488;28;20038;-85
2021/05/26 06:13:41;;;;;;;32.25;22.00;;;;;;;-143.98;100.00;68091.63;4981713;28;20046;-85
2021/05/26 06:16:10;;;;;;;30.65;21.50;;;;;;;-143.98;100.00;68091.63;4981166;28;20055;-86
2021/05/26 06:18:40;;;;;;;29.13;21.35;;;;;;;-143.98;100.00;68091.63;4954629;29;20628;-85
2021/05/26 06:21:09;;;;;;;35.55;21.98;;;;;;;-143.98;100.00;68091.63;4953409;29;20191;-85
2021/05/26 06:23:38;;;;;;;31.98;21.92;;;;;;;-143.98;100.00;68091.63;4960992;28;20059;-83
2021/05/26 06:26:08;;;;;;;34.47;22.98;;;;;;;-143.98;100.00;68091.63;4954029;29;20065;-85
2021/05/26 06:28:35;;;;;;;31.70;21.73;;;;;;;-143.98;100.00;68091.63;4951310;28;20082;-83
2021/05/26 06:31:03;;;;;;;34.60;23.25;;;;;;;-143.98;100.00;68091.63;4956205;28;20073;-85
2021/05/26 06:33:30;;;;;;;38.38;23.20;;;;;;;-143.98;100.00;68091.63;4971447;28;20069;-84
2021/05/26 06:35:58;;;;;;;33.70;22.77;;;;;;;-143.98;100.00;68091.63;4955848;28;20051;-84
2021/05/26 06:38:28;;;;;;;36.42;22.30;;;;;;;-143.98;100.00;68091.63;4957480;28;20109;-84
2021/05/26 06:40:58;;;;;;;33.75;21.95;;;;;;;-143.98;100.00;68091.63;4973882;28;20051;-85
2021/05/26 06:43:30;;;;;;;29.63;18.50;;;;;;;-143.98;100.00;68091.63;4940066;28;20179;-86
2021/05/26 06:46:01;;;;;;;34.13;19.98;;;;;;;-143.98;100.00;68091.63;4952888;29;20077;-85
2021/05/26 06:48:29;;;;;;;37.42;20.88;;;;;;;-143.98;100.00;68091.63;4951419;29;20300;-85
2021/05/26 06:51:04;;;;;;;28.83;18.35;;;;;;;-143.98;100.00;68091.63;4953772;28;20657;-84
2021/05/26 06:53:33;;;;;;;34.10;18.83;;;;;;;-143.98;100.00;68091.63;4959222;28;20039;-85
2021/05/26 06:56:10;;;;;;;32.55;19.27;;;;;;;-143.98;100.00;68091.63;4971737;28;20489;-85
2021/05/26 06:58:39;;;;;;;31.48;16.55;;;;;;;-143.98;100.00;68091.63;4957284;28;20057;-85
2021/05/26 07:01:08;;;;;;;25.73;15.70;;;;;;;-143.98;100.00;68091.63;4972433;28;20067;-84
2021/05/26 07:03:37;;;;;;;32.10;15.05;;;;;;;-143.98;100.00;68091.63;4970042;28;20069;-84
2021/05/26 07:06:08;;;;;;;21.95;14.02;;;;;;;-143.98;100.00;68091.63;4953859;28;20051;-86
2021/05/26 07:08:56;;;;;;;20.65;13.30;;;;;;;-143.98;100.00;68091.63;4959217;28;20057;-85
2021/05/26 07:11:25;;;;;;;19.67;12.75;;;;;;;-143.98;100.00;68091.63;4972872;28;20059;-86
2021/05/26 07:13:52;;;;;;;23.25;12.65;;;;;;;-143.98;100.00;68091.63;4950811;29;20292;-85
2021/05/26 07:16:25;;;;;;;21.80;11.82;;;;;;;-143.98;100.00;68091.63;4948793;28;20313;-87
2021/05/26 07:18:59;;;;;;;20.75;10.18;;;;;;;-143.98;100.00;68091.63;4955563;28;20082;-85
2021/05/26 07:21:28;;;;;;;21.73;9.70;;;;;;;-143.98;100.00;68091.63;4956238;28;20047;-86
2021/05/26 07:24:04;;;;;;;15.80;8.93;;;;;;;-143.98;100.00;68091.63;4981730;28;20114;-85
2021/05/26 07:26:34;;;;;;;15.98;8.30;;;;;;;-143.98;100.00;68091.63;4964978;28;20070;-85
2021/05/26 07:29:08;;;;;;;15.88;8.43;;;;;;;-143.98;100.00;68091.63;4964742;28;20074;-86
2021/05/26 07:31:41;;;;;;;17.50;7.88;;;;;;;-143.98;100.00;68091.63;4973895;28;20050;-86
2021/05/26 07:34:12;;;;;;;15.80;7.88;;;;;;;-143.98;100.00;68091.63;4953494;28;20050;-86
2021/05/26 07:36:41;;;;;;;12.27;8.48;;;;;;;-143.98;100.00;68091.63;4973737;28;20377;-86
2021/05/26 07:39:11;;;;;;;15.00;7.97;;;;;;;-143.98;100.00;68091.63;4971496;28;20191;-85
2021/05/26 07:41:39;;;;;;;10.10;6.30;;;;;;;-143.98;100.00;68091.63;4963009;28;20047;-85
2021/05/26 07:44:11;;;;;;;15.52;6.25;;;;;;;-143.98;100.00;68091.63;4945537;28;20231;-85
2021/05/26 07:46:39;;;;;;;12.68;6.88;;;;;;;-143.98;100.00;68091.63;4960244;28;20054;-85
2021/05/26 07:49:06;;;;;;;16.08;6.63;;;;;;;-143.98;100.00;68091.63;4976573;28;20431;-85
2021/05/26 07:51:41;;;;;;;17.30;6.50;;;;;;;-143.98;100.00;68091.63;4978338;28;20100;-87
2021/05/26 07:54:18;;;;;;;14.60;6.75;;;;;;;-143.98;100.00;68091.63;4993583;28;20138;-86
2021/05/26 07:56:55;;;;;;;8.98;5.70;;;;;;;-143.98;100.00;68091.63;4985686;28;20051;-86
2021/05/26 07:59:28;;;;;;;11.55;6.47;;;;;;;-143.98;100.00;68091.63;5005372;28;20039;-86
2021/05/26 08:02:04;;;;;;;10.10;5.63;;;;;;;-143.98;100.00;68091.63;4998000;28;20308;-87
2021/05/26 08:04:37;;;;;;;9.50;5.65;;;;;;;-143.98;100.00;68091.63;4979633;28;20105;-87
2021/05/26 08:07:09;;;;;;;7.55;5.47;;;;;;;-143.98;100.00;68091.63;4999203;28;20127;-86
2021/05/26 08:10:19;;;;;;;11.35;5.28;;;;;;;-143.98;100.00;68091.63;4979747;28;20082;-86
2021/05/26 08:12:53;;;;;;;11.98;4.63;;;;;;;-143.98;100.00;68091.63;4933571;29;20055;-85
2021/05/26 08:15:28;;;;;;;11.18;4.30;;;;;;;-143.98;100.00;68091.63;4959152;29;20058;-87
2021/05/26 08:17:59;;;;;;;11.18;4.50;;;;;;;-143.98;100.00;68091.63;4955701;28;20067;-85
2021/05/26 08:20:35;;;;;;;8.52;3.50;;;;;;;-143.98;100.00;68091.63;4972978;28;20391;-86
2021/05/26 08:23:08;;;;;;;7.40;3.60;;;;;;;-143.98;100.00;68091.63;4942425;29;20117;-87
2021/05/26 08:25:42;;;;;;;8.02;3.38;;;;;;;-143.98;100.00;68091.63;4955607;29;20110;-85
2021/05/26 08:28:09;;;;;;;6.47;2.72;;;;;;;-143.98;100.00;68091.63;4959412;29;20047;-86
2021/05/26 08:30:44;;;;;;;7.35;3.42;;;;;;;-143.98;100.00;68091.63;4940577;29;20062;-86
2021/05/26 08:33:14;;;;;;;7.68;3.80;;;;;;;-143.98;100.00;68091.63;4941505;29;20210;-86
2021/05/26 08:35:59;;;;;;;;;;;;;;;-143.98;100.00;68091.63;4962926;28;20059;-85
2021/05/26 08:38:28;;;;;;;6.63;3.38;;;;;;;-143.98;100.00;68091.63;4959949;29;19926;-85
2021/05/26 08:41:02;;;;;;;10.68;3.38;;;;;;;-143.98;100.00;68091.63;4956119;29;20098;-85
2021/05/26 08:43:37;;;;;;;14.20;3.42;;;;;;;-143.98;100.00;68091.63;4973204;28;20114;-85
2021/05/26 08:46:05;;;;;;;12.95;3.58;;;;;;;-143.98;100.00;68091.63;4955885;29;20043;-85
2021/05/26 08:48:36;;;;;;;7.07;3.67;;;;;;;-143.98;100.00;68091.63;4963398;28;20461;-87
2021/05/26 08:51:11;;;;;;;8.77;4.22;;;;;;;-143.98;100.00;68091.63;4957759;29;20055;-86
2021/05/26 08:53:48;;;;;;;;;;;;;;;-143.98;100.00;68091.63;4958241;29;20054;-85
2021/05/26 08:56:18;;;;;;;;;;;;;;;-143.98;100.00;68091.63;4959227;29;19922;-85
2021/05/26 08:59:02;;;;;;;6.45;3.38;;;;;;;-143.98;100.00;68091.63;4972518;28;20115;-86
2021/05/26 09:01:31;;;;;;;7.68;3.38;;;;;;;-143.98;100.00;68091.63;4957447;29;20111;-86
2021/05/26 09:04:27;;;;;;;5.32;2.90;;;;;;;-143.98;100.00;68091.63;4972910;28;20122;-86
2021/05/26 09:07:17;;;;;;;8.38;3.15;;;;;;;-143.98;100.00;68091.63;4959160;28;20051;-87
2021/05/26 09:09:58;;;;;;;6.28;3.15;;;;;;;-143.98;100.00;68091.63;4961386;28;20235;-86
2021/05/26 09:12:38;;;;;;;9.05;2.92;;;;;;;-143.98;100.00;68091.63;4975658;28;20109;-87
2021/05/26 09:15:13;;;;;;;3.45;2.50;;;;;;;-143.98;100.00;68091.63;4958738;28;20066;-85
2021/05/26 09:17:54;;;;;;;7.45;3.15;;;;;;;-143.98;100.00;68091.63;4974894;28;20050;-85
2021/05/26 09:20:30;;;;;;;6.28;2.70;;;;;;;-143.98;100.00;68091.63;4973307;28;20066;-86
2021/05/26 09:23:08;;;;;;;4.78;2.60;;;;;;;-143.98;100.00;68091.63;4974128;28;20133;-85
2021/05/26 09:25:44;;;;;;;5.75;2.08;;;;;;;-143.98;100.00;68091.63;4966604;28;20058;-85
2021/05/26 09:28:35;;;;;;;4.55;1.95;;;;;;;-143.98;100.00;68091.63;4983925;28;20066;-87
2021/05/26 09:31:13;;;;;;;7.40;2.17;;;;;;;-143.98;100.00;68091.63;4965428;28;20060;-86
2021/05/26 09:33:51;;;;;;;3.70;2.13;;;;;;;-143.98;100.00;68091.63;4978031;28;20074;-87
2021/05/26 09:36:32;;;;;;;5.65;2.33;;;;;;;-143.98;100.00;68091.63;4979903;28;20063;-87
2021/05/26 09:39:05;;;;;;;5.45;2.00;;;;;;;-143.98;100.00;68091.63;4960546;28;20427;-86
2021/05/26 09:41:38;;;;;;;8.77;2.55;;;;;;;-143.98;100.00;68091.63;4972371;28;20129;-87
2021/05/26 09:44:14;;;;;;;5.25;2.75;;;;;;;-143.98;100.00;68091.63;4993669;28;20094;-86
2021/05/26 09:46:51;;;;;;;6.43;2.38;;;;;;;-143.98;100.00;68091.63;4978217;28;20034;-85
2021/05/26 09:49:22;;;;;;;7.85;2.53;;;;;;;-143.98;100.00;68091.63;4968406;28;20054;-84
2021/05/26 09:51:56;;;;;;;9.02;3.13;;;;;;;-143.98;100.00;68091.63;4947178;29;20548;-85
2021/05/26 09:54:49;;;;;;;4.68;3.10;;;;;;;-143.98;100.00;68091.63;4960427;29;20082;-86
2021/05/26 09:57:19;;;;;;;7.03;3.20;;;;;;;-143.98;100.00;68091.63;4969601;28;20134;-86
2021/05/26 09:59:50;;;;;;;7.78;3.33;;;;;;;-143.98;100.00;68091.63;4957938;29;20149;-86
2021/05/26 10:02:20;;;;;;;8.57;3.85;;;;;;;-143.98;100.00;68091.63;4948208;28;20071;-86
2021/05/26 10:04:47;;;;;;;10.98;3.60;;;;;;;-143.98;100.00;68091.63;4978685;28;20073;-86
2021/05/26 10:07:25;;;;;;;8.65;3.65;;;;;;;-143.98;100.00;68091.63;4975895;28;20058;-86
2021/05/26 10:09:57;;;;;;;8.15;3.50;;;;;;;-143.98;100.00;68091.63;4989675;28;20113;-86
2021/05/26 10:12:27;;;;;;;9.57;3.85;;;;;;;-143.98;100.00;68091.63;4991803;28;20089;-85
2021/05/26 10:15:20;;;;;;;;;;;;;;;;;;;;;
2021/05/26 10:18:01;;;;;;;8.95;4.75;;;;;;;-143.98;100.00;68091.63;4973466;28;20601;-84
2021/05/26 10:20:35;;;;;;;10.27;4.85;;;;;;;-143.98;100.00;68091.63;4970894;28;20046;-85
2021/05/26 10:23:08;;;;;;;12.13;6.35;;;;;;;-143.98;100.00;68091.63;4986521;28;20054;-83
2021/05/26 10:25:44;;;;;;;17.67;8.35;;;;;;;-143.98;100.00;68091.63;4971970;28;20070;-83
2021/05/26 10:28:34;;;;;;;15.90;7.95;;;;;;;-143.98;100.00;68091.63;4959231;28;20054;-83
2021/05/26 10:31:03;;;;;;;19.58;9.10;;;;;;;-143.98;100.00;68091.63;4959204;28;20256;-82
2021/05/26 10:33:51;;;;;;;20.17;12.00;;;;;;;-143.98;100.00;68091.63;4976076;28;20166;-83
2021/05/26 10:36:24;;;;;;;14.70;10.40;;;;;;;-143.98;100.00;68091.63;4972434;28;20054;-82
2021/05/26 10:39:16;;;;;;;18.98;11.43;;;;;;;-143.98;100.00;68091.63;4939205;29;20375;-82
2021/05/26 10:41:58;;;;;;;16.48;9.88;;;;;;;-143.98;100.00;68091.63;4971904;28;20070;-84
2021/05/26 10:44:57;;;;;;;13.40;8.55;;;;;;;-143.98;100.00;68091.63;4977705;28;20051;-86
2021/05/26 10:47:42;;;;;;;15.85;9.10;;;;;;;-143.98;100.00;68091.63;4965136;28;20175;-84
2021/05/26 10:51:00;;;;;;;17.08;9.88;;;;;;;-143.98;100.00;68091.63;4970624;28;20051;-83
2021/05/26 10:53:45;;;;;;;14.07;7.82;;;;;;;-143.98;100.00;68091.63;4979175;28;20402;-84
2021/05/26 10:56:43;;;;;;;15.95;10.65;;;;;;;-143.98;100.00;68091.63;4954570;29;20067;-83
2021/05/26 10:59:38;;;;;;;14.07;10.68;;;;;;;-143.98;100.00;68091.63;4955395;29;20131;-87
2021/05/26 11:02:20;;;;;;;17.77;11.85;;;;;;;-143.98;100.00;68091.63;4983775;28;20055;-83
2021/05/26 11:04:53;;;;;;;15.23;9.27;;;;;;;-143.98;100.00;68091.63;4971285;28;20147;-83
2021/05/26 11:07:35;;;;;;;7.18;3.95;;;;;;;-143.98;100.00;68091.63;4980621;28;20070;-82
2021/05/26 11:10:06;;;;;;;8.07;3.65;;;;;;;-143.98;100.00;68091.63;4961877;28;20150;-81
2021/05/26 11:12:57;;;;;;;7.53;4.68;;;;;;;-143.98;100.00;68091.63;4972327;28;20054;-81
2021/05/26 11:15:48;;;;;;;11.85;5.30;;;;;;;-143.98;100.00;68091.63;4957263;29;20165;-82
2021/05/26 11:18:30;;;;;;;4.82;3.67;;;;;;;-143.98;100.00;68091.63;4955693;29;20115;-82
2021/05/26 11:21:25;;;;;;;9.38;4.95;;;;;;;-143.98;100.00;68091.63;4948036;29;20051;-86
2021/05/26 11:23:57;;;;;;;4.88;4.15;;;;;;;-143.98;100.00;68091.63;4953885;28;20057;-82
2021/05/26 11:26:31;;;;;;;8.07;3.97;;;;;;;-143.98;100.00;68091.63;4968792;28;20055;-83